createdAt,value
2023-03-03T00:01:26.237Z,36.80
2023-03-03T00:03:55.422Z,29.60
2023-03-03T00:06:24.934Z,37.70
2023-03-03T00:08:53.602Z,31.00
2023-03-03T00:11:21.919Z,27.90
2023-03-03T00:13:52.928Z,31.90
2023-03-03T00:16:28.620Z,29.80
2023-03-03T00:18:57.441Z,33.40
2023-03-03T00:21:42.592Z,28.00
2023-03-03T00:24:35.600Z,29.90
2023-03-03T00:27:27.171Z,32.10
2023-03-03T00:29:58.467Z,27.80
2023-03-03T00:32:53.498Z,26.60
2023-03-03T00:35:39.523Z,24.00
2023-03-03T00:38:14.970Z,25.10
2023-03-03T00:40:43.276Z,22.20
2023-03-03T00:43:28.181Z,22.20
2023-03-03T00:45:59.724Z,24.20
2023-03-03T00:48:41.400Z,28.00
2023-03-03T00:51:19.390Z,21.70
2023-03-03T00:53:47.315Z,24.50
2023-03-03T00:56:15.905Z,26.40
2023-03-03T00:58:48.158Z,26.50
2023-03-03T01:01:18.819Z,19.90
2023-03-03T01:03:49.813Z,19.70
2023-03-03T01:06:17.829Z,24.20
2023-03-03T01:08:45.798Z,22.70
2023-03-03T01:11:20.256Z,20.30
2023-03-03T01:13:51.696Z,22.10
2023-03-03T01:16:20.363Z,23.00
2023-03-03T01:18:48.364Z,23.50
2023-03-03T01:21:16.356Z,20.50
2023-03-03T01:23:44.575Z,27.10
2023-03-03T01:26:12.590Z,22.30
2023-03-03T01:28:40.611Z,22.90
2023-03-03T01:31:09.301Z,21.00
2023-03-03T01:33:37.498Z,21.90
2023-03-03T01:36:06.614Z,16.10
2023-03-03T01:38:39.088Z,18.40
2023-03-03T01:41:07.293Z,21.20
2023-03-03T01:43:35.295Z,21.20
2023-03-03T01:46:03.354Z,20.10
2023-03-03T01:48:42.743Z,15.90
2023-03-03T01:51:31.221Z,14.90
2023-03-03T01:54:02.811Z,19.20
2023-03-03T01:56:31.298Z,19.10
2023-03-03T01:59:05.931Z,14.70
2023-03-03T02:01:34.653Z,18.60
2023-03-03T02:04:04.264Z,23.10
2023-03-03T02:06:38.827Z,15.90
2023-03-03T02:09:21.772Z,20.50
2023-03-03T02:11:52.622Z,16.20
2023-03-03T02:14:20.715Z,16.20
2023-03-03T02:16:49.003Z,20.30
2023-03-03T02:19:38.643Z,20.30
2023-03-03T02:22:07.550Z,19.30
2023-03-03T02:24:51.476Z,19.90
2023-03-03T02:27:21.060Z,23.80
2023-03-03T02:29:49.368Z,22.50
2023-03-03T02:32:17.475Z,23.80
2023-03-03T02:34:49.242Z,18.70
2023-03-03T02:37:18.549Z,23.30
2023-03-03T02:39:46.676Z,24.20
2023-03-03T02:42:23.906Z,19.80
2023-03-03T02:44:55.241Z,22.20
2023-03-03T02:47:23.287Z,21.30
2023-03-03T02:49:51.475Z,20.50
2023-03-03T02:52:19.917Z,21.20
2023-03-03T02:54:48.653Z,17.90
2023-03-03T02:57:16.642Z,22.40
2023-03-03T02:59:44.750Z,19.10
2023-03-03T03:02:14.773Z,16.90
2023-03-03T03:04:43.778Z,18.90
2023-03-03T03:07:14.098Z,24.20
2023-03-03T03:09:43.093Z,20.30
2023-03-03T03:12:11.525Z,19.20
2023-03-03T03:14:40.703Z,21.20
2023-03-03T03:17:09.007Z,20.90
2023-03-03T03:19:36.993Z,18.20
2023-03-03T03:22:05.533Z,17.40
2023-03-03T03:24:35.050Z,23.30
2023-03-03T03:27:05.614Z,18.80
2023-03-03T03:29:33.723Z,19.70
2023-03-03T03:32:01.875Z,19.40
2023-03-03T03:34:29.963Z,21.70
2023-03-03T03:36:58.702Z,19.90
2023-03-03T03:39:27.931Z,21.30
2023-03-03T03:41:56.782Z,23.00
2023-03-03T03:44:25.387Z,18.70
2023-03-03T03:46:53.579Z,21.30
2023-03-03T03:49:21.824Z,18.40
2023-03-03T03:51:51.470Z,18.40
2023-03-03T03:54:21.372Z,22.10
2023-03-03T03:56:50.159Z,18.20
2023-03-03T03:59:18.355Z,16.10
2023-03-03T04:01:48.225Z,19.50
2023-03-03T04:04:17.781Z,23.20
2023-03-03T04:06:46.115Z,21.20
2023-03-03T04:09:15.568Z,18.40
2023-03-03T04:11:43.935Z,26.70
2023-03-03T04:14:12.779Z,22.90
2023-03-03T04:16:40.865Z,18.00
2023-03-03T04:19:10.121Z,19.40
2023-03-03T04:21:39.592Z,17.70
2023-03-03T04:24:09.041Z,20.70
2023-03-03T04:26:38.832Z,20.30
2023-03-03T04:29:07.188Z,21.60
2023-03-03T04:31:35.411Z,19.50
2023-03-03T04:34:04.336Z,26.80
2023-03-03T04:36:32.688Z,19.80
2023-03-03T04:39:00.945Z,18.60
2023-03-03T04:41:29.439Z,24.60
2023-03-03T04:43:58.433Z,21.10
2023-03-03T04:46:29.075Z,21.40
2023-03-03T04:48:57.799Z,26.80
2023-03-03T04:51:27.138Z,19.00
2023-03-03T04:53:55.266Z,23.20
2023-03-03T04:56:23.663Z,20.40
2023-03-03T04:58:52.157Z,21.40
2023-03-03T05:01:21.596Z,22.30
2023-03-03T05:03:50.071Z,18.50
2023-03-03T05:06:19.070Z,23.50
2023-03-03T05:08:47.256Z,19.70
2023-03-03T05:11:16.328Z,18.70
2023-03-03T05:13:44.749Z,19.80
2023-03-03T05:16:13.078Z,18.70
2023-03-03T05:18:42.141Z,22.60
2023-03-03T05:21:12.589Z,27.90
2023-03-03T05:23:40.808Z,26.50
2023-03-03T05:26:09.557Z,20.70
2023-03-03T05:28:38.668Z,25.70
2023-03-03T05:31:06.671Z,19.50
2023-03-03T05:33:34.920Z,19.70
2023-03-03T05:36:02.939Z,24.90
2023-03-03T05:38:31.040Z,19.00
2023-03-03T05:41:00.185Z,18.60
2023-03-03T05:43:29.315Z,15.60
2023-03-03T05:45:58.071Z,17.60
2023-03-03T05:48:26.166Z,22.30
2023-03-03T05:50:59.597Z,15.80
2023-03-03T05:53:29.323Z,24.10
2023-03-03T05:55:58.625Z,18.40
2023-03-03T05:58:27.761Z,22.50
2023-03-03T06:00:56.767Z,23.80
2023-03-03T06:03:24.813Z,18.40
2023-03-03T06:05:52.961Z,20.60
2023-03-03T06:08:21.208Z,25.40
2023-03-03T06:10:57.098Z,18.60
2023-03-03T06:13:26.240Z,17.30
2023-03-03T06:15:54.178Z,29.70
2023-03-03T06:18:22.535Z,22.40
2023-03-03T06:20:56.108Z,18.80
2023-03-03T06:23:24.332Z,28.80
2023-03-03T06:25:53.394Z,18.00
2023-03-03T06:28:21.801Z,20.00
2023-03-03T06:30:56.501Z,20.40
2023-03-03T06:33:26.345Z,25.00
2023-03-03T06:35:57.847Z,20.60
2023-03-03T06:38:25.926Z,19.00
2023-03-03T06:40:56.953Z,27.30
2023-03-03T06:43:25.257Z,25.20
2023-03-03T06:45:53.381Z,17.50
2023-03-03T06:48:21.719Z,22.40
2023-03-03T06:50:49.781Z,25.10
2023-03-03T06:53:19.510Z,29.80
2023-03-03T06:55:49.915Z,23.20
2023-03-03T06:58:21.816Z,23.40
2023-03-03T07:00:59.530Z,21.60
2023-03-03T07:03:39.191Z,22.40
2023-03-03T07:06:26.030Z,19.50
2023-03-03T07:08:57.640Z,23.70
2023-03-03T07:11:26.014Z,21.20
2023-03-03T07:13:56.409Z,21.20
2023-03-03T07:16:32.803Z,19.40
2023-03-03T07:19:05.593Z,23.50
2023-03-03T07:21:36.827Z,23.10
2023-03-03T07:24:27.825Z,27.70
2023-03-03T07:29:42.353Z,23.80
2023-03-03T07:32:45.212Z,35.80
2023-03-03T07:35:36.343Z,24.80
2023-03-03T07:38:32.797Z,20.40
2023-03-03T07:41:05.028Z,26.30
2023-03-03T07:43:48.604Z,26.10
2023-03-03T07:46:36.886Z,27.30
2023-03-03T07:49:34.741Z,24.70
2023-03-03T07:52:29.240Z,33.40
2023-03-03T07:55:00.727Z,21.70
2023-03-03T07:57:39.889Z,20.10
2023-03-03T08:00:32.588Z,27.40
2023-03-03T08:03:14.482Z,28.70
2023-03-03T08:05:45.151Z,29.40
2023-03-03T08:08:44.091Z,30.00
2023-03-03T08:11:12.470Z,28.20
2023-03-03T08:13:46.083Z,30.70
2023-03-03T08:16:15.602Z,23.70
2023-03-03T08:18:50.118Z,27.00
2023-03-03T08:21:22.209Z,24.60
2023-03-03T08:23:53.331Z,42.40
2023-03-03T08:26:23.317Z,27.60
2023-03-03T08:28:53.449Z,29.90
2023-03-03T08:31:38.145Z,37.20
2023-03-03T08:34:09.462Z,36.00
2023-03-03T08:36:37.537Z,75.60
2023-03-03T08:39:06.072Z,31.40
2023-03-03T08:41:34.725Z,33.60
2023-03-03T08:44:03.530Z,33.40
2023-03-03T08:46:34.059Z,27.00
2023-03-03T08:49:05.329Z,54.50
2023-03-03T08:51:37.176Z,29.60
2023-03-03T08:54:07.671Z,84.80
2023-03-03T08:56:35.928Z,84.50
2023-03-03T08:59:04.823Z,37.00
2023-03-03T09:01:35.506Z,19.10
2023-03-03T09:04:06.666Z,34.80
2023-03-03T09:06:34.961Z,21.60
2023-03-03T09:09:05.278Z,12.90
2023-03-03T09:11:34.227Z,10.90
2023-03-03T09:14:12.330Z,12.10
2023-03-03T09:17:18.350Z,13.10
2023-03-03T09:22:24.137Z,19.70
2023-03-03T09:24:57.208Z,13.50
2023-03-03T09:27:35.427Z,8.90
2023-03-03T09:30:45.067Z,14.20
2023-03-03T09:33:30.296Z,30.20
2023-03-03T09:36:17.178Z,12.50
2023-03-03T09:38:46.475Z,9.40
2023-03-03T09:41:44.983Z,14.00
2023-03-03T09:44:33.107Z,10.80
2023-03-03T09:47:22.363Z,15.60
2023-03-03T09:50:02.553Z,14.50
2023-03-03T09:52:41.618Z,11.00
2023-03-03T09:55:18.846Z,12.50
2023-03-03T09:58:04.605Z,12.00
2023-03-03T10:00:59.614Z,10.70
2023-03-03T10:03:41.106Z,8.20
2023-03-03T10:06:40.022Z,13.70
2023-03-03T10:09:35.385Z,10.30
2023-03-03T10:12:29.574Z,8.20
2023-03-03T10:15:30.157Z,13.10
2023-03-03T10:18:20.350Z,17.00
2023-03-03T10:21:04.455Z,17.30
2023-03-03T10:23:41.900Z,11.50
2023-03-03T10:26:44.820Z,10.30
2023-03-03T10:29:52.596Z,16.10
2023-03-03T10:32:52.496Z,12.70
2023-03-03T10:35:37.417Z,11.00
2023-03-03T10:38:40.778Z,12.60
2023-03-03T10:41:35.442Z,10.30
2023-03-03T10:44:18.334Z,16.20
2023-03-03T10:46:59.593Z,11.80
2023-03-03T10:49:41.555Z,13.00
2023-03-03T10:52:45.532Z,10.00
2023-03-03T10:55:31.881Z,8.60
2023-03-03T10:58:37.756Z,7.90
2023-03-03T11:01:39.204Z,8.40
2023-03-03T11:04:51.403Z,19.20
2023-03-03T11:07:33.794Z,11.00
2023-03-03T11:10:18.995Z,20.00
2023-03-03T11:13:25.264Z,23.40
2023-03-03T11:16:11.485Z,11.50
2023-03-03T11:21:29.895Z,13.50
2023-03-03T11:24:24.108Z,12.20
2023-03-03T11:27:22.328Z,19.60
2023-03-03T11:30:10.227Z,12.00
2023-03-03T11:32:49.504Z,11.40
2023-03-03T11:35:26.612Z,12.90
2023-03-03T11:38:09.586Z,14.00
2023-03-03T11:40:56.829Z,18.50
2023-03-03T11:43:37.410Z,11.30
2023-03-03T11:46:12.049Z,13.40
2023-03-03T11:49:05.187Z,22.00
2023-03-03T11:52:03.045Z,15.80
2023-03-03T11:54:55.611Z,14.00
2023-03-03T11:57:37.118Z,9.30
2023-03-03T12:00:28.463Z,17.60
2023-03-03T12:03:12.212Z,17.70
2023-03-03T12:05:52.932Z,13.00
2023-03-03T12:08:32.837Z,17.80
2023-03-03T12:11:25.874Z,11.90
2023-03-03T12:14:28.210Z,15.10
2023-03-03T12:17:41.177Z,10.90
2023-03-03T12:20:30.145Z,10.30
2023-03-03T12:23:08.215Z,13.80
2023-03-03T12:25:51.722Z,7.90
2023-03-03T12:28:24.348Z,11.20
2023-03-03T12:31:11.057Z,18.90
2023-03-03T12:33:59.071Z,17.40
2023-03-03T12:36:34.525Z,10.70
2023-03-03T12:39:25.320Z,15.10
2023-03-03T12:42:20.366Z,18.30
2023-03-03T12:45:07.982Z,10.30
2023-03-03T12:47:41.291Z,7.10
2023-03-03T12:50:10.880Z,9.30
2023-03-03T12:53:29.813Z,9.10
2023-03-03T12:56:09.582Z,13.20
2023-03-03T12:58:59.471Z,10.30
2023-03-03T13:01:46.757Z,6.90
2023-03-03T13:04:40.366Z,12.40
2023-03-03T13:07:21.837Z,9.40
2023-03-03T13:10:09.077Z,18.40
2023-03-03T13:12:48.305Z,15.50
2023-03-03T13:15:33.209Z,13.40
2023-03-03T13:18:21.624Z,20.80
2023-03-03T13:21:05.420Z,9.70
2023-03-03T13:24:14.853Z,11.20
2023-03-03T13:26:50.257Z,9.80
2023-03-03T13:29:34.172Z,12.40
2023-03-03T13:32:12.809Z,10.40
2023-03-03T13:34:55.472Z,14.00
2023-03-03T13:37:32.279Z,12.40
2023-03-03T13:40:12.489Z,11.60
2023-03-03T13:42:55.971Z,13.20
2023-03-03T13:45:46.100Z,11.90
2023-03-03T13:48:49.963Z,10.60
2023-03-03T13:51:20.788Z,11.10
2023-03-03T13:54:13.007Z,10.40
2023-03-03T13:56:52.603Z,14.20
2023-03-03T13:59:31.131Z,12.10
2023-03-03T14:02:36.664Z,10.50
2023-03-03T14:05:39.802Z,11.90
2023-03-03T14:08:31.651Z,10.30
2023-03-03T14:11:22.233Z,13.20
2023-03-03T14:14:00.261Z,15.20
2023-03-03T14:16:46.052Z,13.70
2023-03-03T14:19:31.807Z,14.90
2023-03-03T14:22:25.547Z,12.20
2023-03-03T14:25:07.899Z,13.90
2023-03-03T14:28:01.428Z,14.10
2023-03-03T14:30:37.757Z,13.70
2023-03-03T14:33:09.376Z,13.80
2023-03-03T14:35:51.801Z,14.30
2023-03-03T14:38:24.683Z,23.70
2023-03-03T14:41:24.348Z,16.60
2023-03-03T14:44:20.809Z,20.80
2023-03-03T14:47:20.339Z,19.60
2023-03-03T14:49:49.391Z,11.80
2023-03-03T14:52:17.676Z,12.20
2023-03-03T14:54:55.529Z,12.60
2023-03-03T14:57:46.829Z,16.10
2023-03-03T15:00:15.114Z,14.40
2023-03-03T15:03:00.288Z,18.80
2023-03-03T15:05:33.312Z,18.30
2023-03-03T15:08:05.479Z,15.20
2023-03-03T15:10:44.596Z,12.50
2023-03-03T15:13:19.750Z,15.00
2023-03-03T15:16:18.216Z,10.70
2023-03-03T15:19:00.482Z,13.00
2023-03-03T15:21:38.360Z,12.50
2023-03-03T15:24:24.751Z,14.20
2023-03-03T15:27:02.923Z,14.10
2023-03-03T15:30:05.209Z,11.60
2023-03-03T15:33:02.262Z,12.80
2023-03-03T15:35:31.176Z,13.40
2023-03-03T15:38:29.723Z,17.30
2023-03-03T15:41:06.724Z,14.80
2023-03-03T15:43:45.249Z,15.80
2023-03-03T15:46:35.376Z,18.80
2023-03-03T15:49:46.592Z,16.70
2023-03-03T15:52:35.220Z,21.20
2023-03-03T15:55:11.856Z,13.80
2023-03-03T15:57:52.062Z,16.80
2023-03-03T16:00:51.179Z,17.80
2023-03-03T16:03:46.898Z,24.40
2023-03-03T16:06:33.450Z,17.10
2023-03-03T16:09:10.680Z,24.00
2023-03-03T16:12:16.321Z,20.00
2023-03-03T16:14:57.833Z,16.80
2023-03-03T16:17:42.145Z,15.10
2023-03-03T16:20:22.860Z,18.50
2023-03-03T16:22:58.666Z,19.10
2023-03-03T16:25:40.920Z,19.50
2023-03-03T16:28:43.274Z,17.70
2023-03-03T16:31:19.800Z,19.20
2023-03-03T16:34:12.439Z,22.10
2023-03-03T16:37:03.026Z,19.10
2023-03-03T16:39:46.380Z,18.20
2023-03-03T16:42:16.338Z,20.70
2023-03-03T16:45:19.065Z,22.90
2023-03-03T16:47:58.334Z,21.80
2023-03-03T16:50:50.261Z,17.50
2023-03-03T16:53:38.917Z,23.30
2023-03-03T16:56:37.866Z,22.50
2023-03-03T16:59:28.658Z,20.00
2023-03-03T17:02:22.015Z,24.10
2023-03-03T17:05:00.718Z,22.20
2023-03-03T17:07:49.615Z,23.30
2023-03-03T17:11:02.247Z,19.60
2023-03-03T17:14:06.444Z,21.80
2023-03-03T17:17:03.380Z,22.70
2023-03-03T17:20:02.861Z,24.80
2023-03-03T17:23:06.928Z,19.20
2023-03-03T17:25:54.061Z,18.00
2023-03-03T17:28:34.225Z,25.10
2023-03-03T17:31:24.763Z,23.90
2023-03-03T17:34:03.780Z,21.50
2023-03-03T17:37:16.859Z,23.80
2023-03-03T17:40:25.141Z,23.50
2023-03-03T17:43:05.355Z,21.00
2023-03-03T17:45:41.353Z,22.10
2023-03-03T17:48:42.640Z,17.80
2023-03-03T17:51:58.420Z,24.40
2023-03-03T17:54:42.449Z,29.70
2023-03-03T17:57:29.042Z,31.90
2023-03-03T18:00:32.054Z,30.30
2023-03-03T18:03:03.170Z,33.30
2023-03-03T18:05:40.577Z,32.70
2023-03-03T18:08:33.584Z,35.30
2023-03-03T18:11:10.948Z,36.50
2023-03-03T18:14:02.890Z,34.90
2023-03-03T18:16:50.823Z,34.00
2023-03-03T18:19:46.661Z,34.30
2023-03-03T18:22:25.592Z,37.40
2023-03-03T18:25:01.487Z,38.00
2023-03-03T18:27:32.746Z,36.00
2023-03-03T18:30:08.055Z,36.90
2023-03-03T18:32:56.501Z,36.60
2023-03-03T18:35:27.765Z,39.60
2023-03-03T18:37:57.626Z,33.20
2023-03-03T18:40:34.601Z,36.40
2023-03-03T18:43:42.383Z,45.50
2023-03-03T18:46:32.390Z,51.50
2023-03-03T18:49:12.890Z,53.70
2023-03-03T18:51:42.850Z,51.70
2023-03-03T18:54:17.739Z,55.30
2023-03-03T18:56:48.440Z,49.50
2023-03-03T18:59:41.779Z,52.40
2023-03-03T19:02:13.452Z,58.80
2023-03-03T19:05:09.093Z,46.40
2023-03-03T19:07:49.052Z,57.20
2023-03-03T19:10:23.272Z,51.20
2023-03-03T19:12:55.457Z,50.60
2023-03-03T19:15:30.312Z,48.80
2023-03-03T19:18:01.947Z,48.50
2023-03-03T19:20:58.014Z,42.30
2023-03-03T19:23:26.206Z,48.60
2023-03-03T19:26:25.893Z,43.10
2023-03-03T19:29:03.226Z,46.90
2023-03-03T19:32:04.225Z,45.70
2023-03-03T19:34:55.875Z,43.40
2023-03-03T19:37:27.279Z,40.10
2023-03-03T19:40:03.499Z,45.10
2023-03-03T19:42:46.509Z,41.70
2023-03-03T19:45:36.399Z,50.30
2023-03-03T19:48:16.692Z,45.50
2023-03-03T19:51:00.031Z,46.20
2023-03-03T19:53:54.760Z,46.40
2023-03-03T19:56:45.884Z,44.90
2023-03-03T19:59:32.936Z,39.10
2023-03-03T20:02:29.364Z,44.00
2023-03-03T20:05:16.658Z,48.10
2023-03-03T20:07:56.035Z,40.60
2023-03-03T20:11:01.286Z,56.50
2023-03-03T20:14:03.128Z,50.10
2023-03-03T20:16:41.982Z,38.50
2023-03-03T20:19:30.123Z,42.50
2023-03-03T20:22:08.502Z,43.60
2023-03-03T20:24:46.337Z,43.10
2023-03-03T20:27:19.641Z,44.00
2023-03-03T20:30:08.347Z,38.10
2023-03-03T20:32:43.967Z,46.40
2023-03-03T20:35:31.253Z,39.20
2023-03-03T20:38:07.366Z,39.40
2023-03-03T20:40:48.739Z,36.60
2023-03-03T20:43:51.573Z,36.20
2023-03-03T20:46:44.569Z,39.60
2023-03-03T20:49:34.637Z,36.60
2023-03-03T20:52:21.305Z,35.60
2023-03-03T20:55:10.745Z,32.60
2023-03-03T20:58:11.024Z,41.70
2023-03-03T21:00:53.583Z,34.80
2023-03-03T21:03:42.140Z,38.80
2023-03-03T21:06:19.699Z,40.30
2023-03-03T21:08:49.935Z,38.30
2023-03-03T21:11:21.206Z,45.10
2023-03-03T21:13:53.649Z,39.80
2023-03-03T21:16:21.644Z,38.40
2023-03-03T21:19:03.280Z,47.70
2023-03-03T21:21:34.470Z,40.10
2023-03-03T21:24:02.851Z,35.40
2023-03-03T21:27:23.554Z,35.90
2023-03-03T21:30:20.744Z,43.30
2023-03-03T21:32:51.109Z,44.50
2023-03-03T21:35:22.097Z,39.00
2023-03-03T21:37:56.117Z,41.20
2023-03-03T21:40:28.636Z,44.60
2023-03-03T21:43:01.150Z,44.10
2023-03-03T21:45:30.513Z,48.30
2023-03-03T21:48:01.390Z,42.20
2023-03-03T21:50:33.034Z,37.70
2023-03-03T21:53:01.373Z,43.10
2023-03-03T21:55:29.493Z,50.00
2023-03-03T21:57:57.674Z,41.70
2023-03-03T22:00:25.925Z,45.20
2023-03-03T22:02:58.091Z,43.20
2023-03-03T22:05:26.074Z,43.30
2023-03-03T22:07:54.230Z,39.20
2023-03-03T22:10:23.665Z,47.10
2023-03-03T22:12:51.709Z,48.30
2023-03-03T22:15:19.852Z,47.60
2023-03-03T22:17:47.912Z,49.10
2023-03-03T22:20:18.213Z,48.20
2023-03-03T22:22:47.518Z,40.30
2023-03-03T22:25:15.519Z,44.00
2023-03-03T22:27:43.974Z,45.50
2023-03-03T22:30:12.717Z,41.70
2023-03-03T22:32:40.764Z,37.10
2023-03-03T22:35:09.601Z,46.80
2023-03-03T22:37:37.663Z,45.40
2023-03-03T22:40:06.212Z,42.60
2023-03-03T22:42:34.200Z,43.20
2023-03-03T22:45:02.356Z,42.30
2023-03-03T22:47:30.395Z,44.60
2023-03-03T22:49:59.465Z,46.80
2023-03-03T22:52:27.956Z,44.00
2023-03-03T22:54:58.042Z,42.80
2023-03-03T22:57:30.128Z,35.50
2023-03-03T23:00:00.040Z,37.20
2023-03-03T23:02:29.401Z,46.00
2023-03-03T23:05:01.822Z,43.10
2023-03-03T23:07:30.028Z,43.20
2023-03-03T23:09:57.965Z,47.00
2023-03-03T23:12:26.523Z,47.00
2023-03-03T23:14:54.604Z,42.50
2023-03-03T23:17:24.451Z,42.50
2023-03-03T23:19:52.980Z,46.10
2023-03-03T23:22:21.089Z,41.50
2023-03-03T23:24:49.652Z,45.00
2023-03-03T23:27:17.801Z,43.60
2023-03-03T23:29:45.939Z,46.00
2023-03-03T23:32:14.195Z,35.60
2023-03-03T23:34:42.382Z,36.00
2023-03-03T23:37:11.330Z,32.50
2023-03-03T23:39:40.813Z,35.10
2023-03-03T23:42:08.824Z,40.40
2023-03-03T23:44:40.354Z,34.50
2023-03-03T23:47:08.929Z,36.40
2023-03-03T23:49:38.835Z,36.40
2023-03-03T23:52:09.148Z,44.70
2023-03-03T23:54:37.535Z,36.30
2023-03-03T23:57:08.093Z,37.10
2023-03-03T23:59:38.808Z,32.00
